sensor_id;sensor_type;location;lat;lon;timestamp;pressure;altitude;pressure_sealevel;temperature;humidity
26859;BME280;14429;48.346;16.338;2023-01-28T00:00:12;100160.72;;;9.41;54.52
26859;BME280;14429;48.346;16.338;2023-01-28T00:02:38;100165.63;;;9.18;50.14
26859;BME280;14429;48.346;16.338;2023-01-28T00:05:04;100164.63;;;9.21;49.25
26859;BME280;14429;48.346;16.338;2023-01-28T00:07:30;100173.88;;;9.14;56.10
26859;BME280;14429;48.346;16.338;2023-01-28T00:09:55;100166.75;;;9.30;56.98
26859;BME280;14429;48.346;16.338;2023-01-28T00:12:20;100173.13;;;9.27;56.98
26859;BME280;14429;48.346;16.338;2023-01-28T00:14:46;100169.13;;;9.49;57.02
26859;BME280;14429;48.346;16.338;2023-01-28T00:17:13;100169.13;;;9.49;56.58
26859;BME280;14429;48.346;16.338;2023-01-28T00:19:38;100175.16;;;9.53;55.88
26859;BME280;14429;48.346;16.338;2023-01-28T00:22:04;100168.53;;;9.60;55.95
26859;BME280;14429;48.346;16.338;2023-01-28T00:24:29;100170.00;;;9.65;55.15
26859;BME280;14429;48.346;16.338;2023-01-28T00:26:55;100171.03;;;9.63;55.11
26859;BME280;14429;48.346;16.338;2023-01-28T00:29:20;100171.75;;;9.36;52.81
26859;BME280;14429;48.346;16.338;2023-01-28T00:31:46;100170.34;;;9.59;54.96
26859;BME280;14429;48.346;16.338;2023-01-28T00:34:13;100166.34;;;9.22;55.91
26859;BME280;14429;48.346;16.338;2023-01-28T00:36:38;100166.16;;;9.40;56.91
26859;BME280;14429;48.346;16.338;2023-01-28T00:39:04;100159.28;;;9.51;56.88
26859;BME280;14429;48.346;16.338;2023-01-28T00:41:30;100161.59;;;9.27;55.76
26859;BME280;14429;48.346;16.338;2023-01-28T00:43:56;100157.31;;;9.40;55.61
26859;BME280;14429;48.346;16.338;2023-01-28T00:46:22;100155.44;;;9.11;54.50
26859;BME280;14429;48.346;16.338;2023-01-28T00:48:48;100150.72;;;9.46;55.72
26859;BME280;14429;48.346;16.338;2023-01-28T00:51:16;100154.66;;;9.40;55.36
26859;BME280;14429;48.346;16.338;2023-01-28T00:53:42;100157.34;;;9.09;55.44
26859;BME280;14429;48.346;16.338;2023-01-28T00:56:11;100157.47;;;8.76;50.55
26859;BME280;14429;48.346;16.338;2023-01-28T00:58:37;100150.09;;;8.81;55.54
26859;BME280;14429;48.346;16.338;2023-01-28T01:01:06;100167.41;;;8.88;54.86
26859;BME280;14429;48.346;16.338;2023-01-28T01:03:32;100160.09;;;8.61;53.14
26859;BME280;14429;48.346;16.338;2023-01-28T01:05:57;100168.63;;;8.97;57.72
26859;BME280;14429;48.346;16.338;2023-01-28T01:08:24;100168.47;;;9.00;57.18
26859;BME280;14429;48.346;16.338;2023-01-28T01:10:49;100162.97;;;8.88;56.41
26859;BME280;14429;48.346;16.338;2023-01-28T01:13:15;100167.06;;;8.93;54.21
26859;BME280;14429;48.346;16.338;2023-01-28T01:15:40;100166.06;;;9.26;55.86
26859;BME280;14429;48.346;16.338;2023-01-28T01:18:05;100160.06;;;9.23;55.93
26859;BME280;14429;48.346;16.338;2023-01-28T01:20:31;100167.59;;;9.45;55.01
26859;BME280;14429;48.346;16.338;2023-01-28T01:22:56;100160.25;;;9.20;53.90
26859;BME280;14429;48.346;16.338;2023-01-28T01:25:23;100165.31;;;9.24;55.95
26859;BME280;14429;48.346;16.338;2023-01-28T01:27:48;100161.53;;;9.13;56.98
26859;BME280;14429;48.346;16.338;2023-01-28T01:30:14;100164.00;;;9.01;57.73
26859;BME280;14429;48.346;16.338;2023-01-28T01:32:40;100177.81;;;9.07;56.96
26859;BME280;14429;48.346;16.338;2023-01-28T01:35:08;100176.22;;;9.20;56.82
26859;BME280;14429;48.346;16.338;2023-01-28T01:37:34;100179.72;;;9.36;55.67
26859;BME280;14429;48.346;16.338;2023-01-28T01:40:00;100177.41;;;9.14;52.98
26859;BME280;14429;48.346;16.338;2023-01-28T01:42:27;100175.50;;;9.47;55.33
26859;BME280;14429;48.346;16.338;2023-01-28T01:44:56;100171.22;;;9.14;55.56
26859;BME280;14429;48.346;16.338;2023-01-28T01:47:24;100160.59;;;9.29;55.09
26859;BME280;14429;48.346;16.338;2023-01-28T01:49:51;100168.81;;;9.25;55.44
26859;BME280;14429;48.346;16.338;2023-01-28T01:52:18;100173.94;;;8.33;52.29
26859;BME280;14429;48.346;16.338;2023-01-28T01:54:47;100173.19;;;8.95;57.49
26859;BME280;14429;48.346;16.338;2023-01-28T01:57:18;100177.16;;;8.40;52.25
26859;BME280;14429;48.346;16.338;2023-01-28T01:59:47;100173.09;;;8.50;51.55
26859;BME280;14429;48.346;16.338;2023-01-28T02:02:12;100170.34;;;8.98;56.96
26859;BME280;14429;48.346;16.338;2023-01-28T02:04:39;100174.03;;;9.11;55.87
26859;BME280;14429;48.346;16.338;2023-01-28T02:07:07;100176.09;;;8.91;55.60
26859;BME280;14429;48.346;16.338;2023-01-28T02:09:34;100174.84;;;9.13;55.14
26859;BME280;14429;48.346;16.338;2023-01-28T02:12:03;100183.22;;;8.90;52.22
26859;BME280;14429;48.346;16.338;2023-01-28T02:14:34;100170.78;;;9.21;53.96
26859;BME280;14429;48.346;16.338;2023-01-28T02:17:01;100171.91;;;9.02;55.13
26859;BME280;14429;48.346;16.338;2023-01-28T02:19:33;100178.78;;;9.06;56.81
26859;BME280;14429;48.346;16.338;2023-01-28T02:22:09;100163.50;;;9.25;56.98
26859;BME280;14429;48.346;16.338;2023-01-28T02:25:05;100174.84;;;9.28;56.61
26859;BME280;14429;48.346;16.338;2023-01-28T02:27:35;100173.59;;;8.56;53.94
26859;BME280;14429;48.346;16.338;2023-01-28T02:30:09;100166.44;;;9.05;55.64
26859;BME280;14429;48.346;16.338;2023-01-28T02:32:42;100166.44;;;9.36;55.36
26859;BME280;14429;48.346;16.338;2023-01-28T02:35:11;100174.84;;;9.13;55.14
26859;BME280;14429;48.346;16.338;2023-01-28T02:37:42;100179.72;;;9.36;54.73
26859;BME280;14429;48.346;16.338;2023-01-28T02:40:12;100179.09;;;9.31;54.98
26859;BME280;14429;48.346;16.338;2023-01-28T02:42:39;100168.66;;;9.28;55.55
26859;BME280;14429;48.346;16.338;2023-01-28T02:45:14;100177.69;;;8.93;55.52
26859;BME280;14429;48.346;16.338;2023-01-28T02:47:41;100170.53;;;8.95;56.68
26859;BME280;14429;48.346;16.338;2023-01-28T02:50:08;100172.75;;;9.18;54.42
26859;BME280;14429;48.346;16.338;2023-01-28T02:55:29;100166.59;;;9.33;55.74
26859;BME280;14429;48.346;16.338;2023-01-28T02:58:00;100177.41;;;9.14;54.66
26859;BME280;14429;48.346;16.338;2023-01-28T03:00:32;100170.38;;;9.14;54.72
26859;BME280;14429;48.346;16.338;2023-01-28T03:03:07;100155.34;;;9.43;54.62
26859;BME280;14429;48.346;16.338;2023-01-28T03:05:38;100171.75;;;9.36;54.61
26859;BME280;14429;48.346;16.338;2023-01-28T03:08:09;100172.94;;;9.15;54.91
26859;BME280;14429;48.346;16.338;2023-01-28T03:10:36;100169.66;;;8.95;55.39
26859;BME280;14429;48.346;16.338;2023-01-28T03:13:02;100177.81;;;9.07;55.84
26859;BME280;14429;48.346;16.338;2023-01-28T03:15:32;100170.00;;;9.04;55.70
26859;BME280;14429;48.346;16.338;2023-01-28T03:18:01;100172.22;;;8.96;56.77
26859;BME280;14429;48.346;16.338;2023-01-28T03:20:34;100180.31;;;9.10;55.65
26859;BME280;14429;48.346;16.338;2023-01-28T03:23:04;100182.38;;;9.05;55.54
26859;BME280;14429;48.346;16.338;2023-01-28T03:25:33;100183.56;;;9.15;55.06
26859;BME280;14429;48.346;16.338;2023-01-28T03:28:01;100183.28;;;8.89;54.67
26859;BME280;14429;48.346;16.338;2023-01-28T03:30:34;100182.53;;;9.02;54.99
26859;BME280;14429;48.346;16.338;2023-01-28T03:33:02;100189.69;;;9.17;54.81
26859;BME280;14429;48.346;16.338;2023-01-28T03:35:31;100193.34;;;9.30;55.02
26859;BME280;14429;48.346;16.338;2023-01-28T03:37:58;100194.13;;;9.01;54.70
26859;BME280;14429;48.346;16.338;2023-01-28T03:40:24;100202.25;;;8.98;56.49
26859;BME280;14429;48.346;16.338;2023-01-28T03:42:50;100193.34;;;9.14;56.62
26859;BME280;14429;48.346;16.338;2023-01-28T03:45:15;100193.88;;;9.36;55.91
26859;BME280;14429;48.346;16.338;2023-01-28T03:47:42;100187.19;;;9.29;55.03
26859;BME280;14429;48.346;16.338;2023-01-28T03:50:09;100177.66;;;9.10;53.00
26859;BME280;14429;48.346;16.338;2023-01-28T03:52:34;100187.63;;;8.75;54.97
26859;BME280;14429;48.346;16.338;2023-01-28T03:55:00;100189.03;;;9.12;54.98
26859;BME280;14429;48.346;16.338;2023-01-28T03:57:26;100189.25;;;9.24;54.62
26859;BME280;14429;48.346;16.338;2023-01-28T03:59:52;100183.72;;;8.97;54.42
26859;BME280;14429;48.346;16.338;2023-01-28T04:02:19;100185.38;;;8.67;54.92
26859;BME280;14429;48.346;16.338;2023-01-28T04:04:46;100178.59;;;8.13;53.27
26859;BME280;14429;48.346;16.338;2023-01-28T04:07:12;100178.38;;;8.82;56.75
26859;BME280;14429;48.346;16.338;2023-01-28T04:09:38;100183.81;;;8.95;56.87
26859;BME280;14429;48.346;16.338;2023-01-28T04:12:04;100185.31;;;8.69;53.33
26859;BME280;14429;48.346;16.338;2023-01-28T04:14:30;100190.09;;;8.94;54.60
26859;BME280;14429;48.346;16.338;2023-01-28T04:16:55;100182.56;;;8.70;51.35
26859;BME280;14429;48.346;16.338;2023-01-28T04:19:21;100185.09;;;9.04;55.13
26859;BME280;14429;48.346;16.338;2023-01-28T04:21:49;100178.72;;;8.76;53.42
26859;BME280;14429;48.346;16.338;2023-01-28T04:24:14;100189.94;;;9.13;54.81
26859;BME280;14429;48.346;16.338;2023-01-28T04:26:40;100194.22;;;9.15;55.06
26859;BME280;14429;48.346;16.338;2023-01-28T04:29:05;100191.59;;;8.51;54.17
26859;BME280;14429;48.346;16.338;2023-01-28T04:31:32;100192.09;;;8.89;56.53
26859;BME280;14429;48.346;16.338;2023-01-28T04:33:57;100193.41;;;8.83;56.71
26859;BME280;14429;48.346;16.338;2023-01-28T04:36:22;100186.38;;;9.12;56.35
26859;BME280;14429;48.346;16.338;2023-01-28T04:38:49;100189.94;;;9.13;55.36
26859;BME280;14429;48.346;16.338;2023-01-28T04:41:15;100190.63;;;9.16;55.43
26859;BME280;14429;48.346;16.338;2023-01-28T04:43:40;100187.84;;;9.02;54.75
26859;BME280;14429;48.346;16.338;2023-01-28T04:46:06;100198.34;;;9.05;54.96
26859;BME280;14429;48.346;16.338;2023-01-28T04:48:32;100196.53;;;8.74;53.04
26859;BME280;14429;48.346;16.338;2023-01-28T04:50:57;100200.50;;;8.82;54.49
26859;BME280;14429;48.346;16.338;2023-01-28T04:53:22;100209.44;;;8.96;54.84
26859;BME280;14429;48.346;16.338;2023-01-28T04:55:49;100204.56;;;9.04;55.91
26859;BME280;14429;48.346;16.338;2023-01-28T04:58:15;100207.41;;;9.01;56.39
26859;BME280;14429;48.346;16.338;2023-01-28T05:00:40;100203.13;;;8.99;55.84
26859;BME280;14429;48.346;16.338;2023-01-28T05:03:06;100211.66;;;8.88;56.47
26859;BME280;14429;48.346;16.338;2023-01-28T05:05:31;100211.78;;;9.02;56.11
26859;BME280;14429;48.346;16.338;2023-01-28T05:07:57;100216.34;;;9.15;55.53
26859;BME280;14429;48.346;16.338;2023-01-28T05:10:23;100213.69;;;9.31;54.73
26859;BME280;14429;48.346;16.338;2023-01-28T05:12:51;100214.47;;;9.48;54.01
26859;BME280;14429;48.346;16.338;2023-01-28T05:15:17;100208.72;;;9.40;53.47
26859;BME280;14429;48.346;16.338;2023-01-28T05:17:43;100211.66;;;8.88;52.04
26859;BME280;14429;48.346;16.338;2023-01-28T05:20:11;100220.91;;;8.82;55.00
26859;BME280;14429;48.346;16.338;2023-01-28T05:22:37;100211.50;;;8.91;56.32
26859;BME280;14429;48.346;16.338;2023-01-28T05:25:03;100220.09;;;8.96;56.13
26859;BME280;14429;48.346;16.338;2023-01-28T05:27:29;100216.47;;;8.97;56.51
26859;BME280;14429;48.346;16.338;2023-01-28T05:29:56;100222.59;;;8.99;56.16
26859;BME280;14429;48.346;16.338;2023-01-28T05:32:21;100222.72;;;9.13;55.64
26859;BME280;14429;48.346;16.338;2023-01-28T05:34:47;100227.38;;;8.61;54.76
26859;BME280;14429;48.346;16.338;2023-01-28T05:37:12;100222.88;;;9.10;54.75
26859;BME280;14429;48.346;16.338;2023-01-28T05:39:37;100220.41;;;8.75;55.12
26859;BME280;14429;48.346;16.338;2023-01-28T05:42:03;100223.03;;;9.07;54.62
26859;BME280;14429;48.346;16.338;2023-01-28T05:44:29;100217.59;;;8.61;53.90
26859;BME280;14429;48.346;16.338;2023-01-28T05:46:55;100218.75;;;8.56;55.62
26859;BME280;14429;48.346;16.338;2023-01-28T05:49:21;100221.72;;;8.00;56.26
26859;BME280;14429;48.346;16.338;2023-01-28T05:51:46;100215.84;;;8.45;57.76
26859;BME280;14429;48.346;16.338;2023-01-28T05:54:12;100224.78;;;8.60;57.34
26859;BME280;14429;48.346;16.338;2023-01-28T05:56:37;100230.13;;;8.26;55.74
26859;BME280;14429;48.346;16.338;2023-01-28T05:59:03;100224.66;;;8.94;56.03
26859;BME280;14429;48.346;16.338;2023-01-28T06:01:28;100228.19;;;9.10;55.49
26859;BME280;14429;48.346;16.338;2023-01-28T06:03:55;100238.00;;;8.44;52.28
26859;BME280;14429;48.346;16.338;2023-01-28T06:06:21;100233.09;;;8.86;55.35
26859;BME280;14429;48.346;16.338;2023-01-28T06:08:46;100249.59;;;8.92;54.45
26859;BME280;14429;48.346;16.338;2023-01-28T06:11:11;100242.81;;;8.87;54.26
26859;BME280;14429;48.346;16.338;2023-01-28T06:13:37;100242.56;;;8.91;55.77
26859;BME280;14429;48.346;16.338;2023-01-28T06:16:03;100244.50;;;8.04;53.19
26859;BME280;14429;48.346;16.338;2023-01-28T06:18:29;100248.94;;;8.22;54.16
26859;BME280;14429;48.346;16.338;2023-01-28T06:20:55;100252.66;;;8.85;56.88
26859;BME280;14429;48.346;16.338;2023-01-28T06:23:21;100247.88;;;8.91;56.17
26859;BME280;14429;48.346;16.338;2023-01-28T06:25:46;100250.78;;;8.87;56.04
26859;BME280;14429;48.346;16.338;2023-01-28T06:28:12;100252.91;;;8.63;55.33
26859;BME280;14429;48.346;16.338;2023-01-28T06:30:37;100254.41;;;9.01;54.94
26859;BME280;14429;48.346;16.338;2023-01-28T06:33:02;100255.28;;;9.01;54.78
26859;BME280;14429;48.346;16.338;2023-01-28T06:35:28;100260.78;;;8.82;53.17
26859;BME280;14429;48.346;16.338;2023-01-28T06:37:55;100257.53;;;8.60;55.16
26859;BME280;14429;48.346;16.338;2023-01-28T06:40:20;100259.13;;;8.31;51.66
26859;BME280;14429;48.346;16.338;2023-01-28T06:42:46;100263.22;;;8.69;56.63
26859;BME280;14429;48.346;16.338;2023-01-28T06:45:11;100261.59;;;8.17;53.88
26859;BME280;14429;48.346;16.338;2023-01-28T06:47:38;100266.44;;;8.26;53.59
26859;BME280;14429;48.346;16.338;2023-01-28T06:50:04;100274.97;;;8.49;56.54
26859;BME280;14429;48.346;16.338;2023-01-28T06:52:29;100279.41;;;8.48;52.62
26859;BME280;14429;48.346;16.338;2023-01-28T06:54:56;100284.19;;;9.07;55.38
26859;BME280;14429;48.346;16.338;2023-01-28T06:57:21;100286.38;;;9.16;54.65
26859;BME280;14429;48.346;16.338;2023-01-28T06:59:47;100284.28;;;9.06;53.64
26859;BME280;14429;48.346;16.338;2023-01-28T07:02:13;100288.75;;;9.05;54.51
26859;BME280;14429;48.346;16.338;2023-01-28T07:04:38;100280.19;;;9.31;53.83
26859;BME280;14429;48.346;16.338;2023-01-28T07:07:03;100280.88;;;9.19;54.62
26859;BME280;14429;48.346;16.338;2023-01-28T07:09:29;100283.75;;;8.99;55.61
26859;BME280;14429;48.346;16.338;2023-01-28T07:11:56;100275.72;;;8.67;55.13
26859;BME280;14429;48.346;16.338;2023-01-28T07:14:21;100279.41;;;8.82;56.24
26859;BME280;14429;48.346;16.338;2023-01-28T07:16:46;100274.66;;;9.03;55.47
26859;BME280;14429;48.346;16.338;2023-01-28T07:19:12;100268.34;;;9.06;55.00
26859;BME280;14429;48.346;16.338;2023-01-28T07:21:37;100278.47;;;8.66;51.20
26859;BME280;14429;48.346;16.338;2023-01-28T07:24:03;100274.94;;;8.82;54.93
26859;BME280;14429;48.346;16.338;2023-01-28T07:26:28;100286.59;;;8.80;54.76
26859;BME280;14429;48.346;16.338;2023-01-28T07:28:55;100280.69;;;9.07;53.43
26859;BME280;14429;48.346;16.338;2023-01-28T07:31:20;100282.78;;;8.68;51.85
26859;BME280;14429;48.346;16.338;2023-01-28T07:33:46;100287.16;;;8.69;55.26
26859;BME280;14429;48.346;16.338;2023-01-28T07:36:11;100293.31;;;8.20;56.98
26859;BME280;14429;48.346;16.338;2023-01-28T07:38:37;100298.47;;;8.23;57.13
26859;BME280;14429;48.346;16.338;2023-01-28T07:41:02;100299.06;;;8.11;57.08
26859;BME280;14429;48.346;16.338;2023-01-28T07:43:28;100292.84;;;8.79;56.12
26859;BME280;14429;48.346;16.338;2023-01-28T07:45:54;100286.91;;;8.74;52.64
26859;BME280;14429;48.346;16.338;2023-01-28T07:48:20;100294.19;;;8.87;55.20
26859;BME280;14429;48.346;16.338;2023-01-28T07:50:46;100293.78;;;8.94;53.40
26859;BME280;14429;48.346;16.338;2023-01-28T07:53:11;100294.38;;;8.99;54.53
26859;BME280;14429;48.346;16.338;2023-01-28T07:55:37;100296.25;;;8.97;52.31
26859;BME280;14429;48.346;16.338;2023-01-28T07:58:04;100302.06;;;9.05;53.93
26859;BME280;14429;48.346;16.338;2023-01-28T08:00:32;100301.09;;;9.06;55.13
26859;BME280;14429;48.346;16.338;2023-01-28T08:03:01;100312.44;;;9.10;55.19
26859;BME280;14429;48.346;16.338;2023-01-28T08:05:32;100308.69;;;8.97;54.43
26859;BME280;14429;48.346;16.338;2023-01-28T08:08:00;100311.75;;;9.06;55.70
26859;BME280;14429;48.346;16.338;2023-01-28T08:10:26;100314.25;;;9.09;54.82
26859;BME280;14429;48.346;16.338;2023-01-28T08:12:52;100318.75;;;9.24;54.65
26859;BME280;14429;48.346;16.338;2023-01-28T08:15:18;100324.38;;;9.18;54.38
26859;BME280;14429;48.346;16.338;2023-01-28T08:17:43;100329.50;;;9.38;53.59
26859;BME280;14429;48.346;16.338;2023-01-28T08:20:11;100333.81;;;8.91;54.03
26859;BME280;14429;48.346;16.338;2023-01-28T08:22:36;100330.66;;;9.17;53.86
26859;BME280;14429;48.346;16.338;2023-01-28T08:25:02;100340.69;;;8.62;54.29
26859;BME280;14429;48.346;16.338;2023-01-28T08:27:27;100337.50;;;8.72;53.91
26859;BME280;14429;48.346;16.338;2023-01-28T08:29:53;100338.03;;;8.79;55.86
26859;BME280;14429;48.346;16.338;2023-01-28T08:32:18;100342.75;;;8.90;55.91
26859;BME280;14429;48.346;16.338;2023-01-28T08:34:43;100347.25;;;8.88;54.88
26859;BME280;14429;48.346;16.338;2023-01-28T08:37:10;100349.91;;;8.88;55.06
26859;BME280;14429;48.346;16.338;2023-01-28T08:39:36;100349.75;;;9.08;54.82
26859;BME280;14429;48.346;16.338;2023-01-28T08:42:01;100346.63;;;9.17;54.27
26859;BME280;14429;48.346;16.338;2023-01-28T08:44:26;100350.72;;;9.22;53.86
26859;BME280;14429;48.346;16.338;2023-01-28T08:46:52;100347.50;;;9.33;53.42
26859;BME280;14429;48.346;16.338;2023-01-28T08:49:17;100353.13;;;9.43;52.85
26859;BME280;14429;48.346;16.338;2023-01-28T08:51:43;100354.19;;;9.24;53.37
26859;BME280;14429;48.346;16.338;2023-01-28T08:54:09;100365.72;;;8.91;54.04
26859;BME280;14429;48.346;16.338;2023-01-28T08:56:35;100357.84;;;8.90;55.75
26859;BME280;14429;48.346;16.338;2023-01-28T08:59:00;100365.72;;;8.91;55.64
26859;BME280;14429;48.346;16.338;2023-01-28T09:01:26;100370.03;;;8.94;55.94
26859;BME280;14429;48.346;16.338;2023-01-28T09:03:51;100361.63;;;9.18;55.10
26859;BME280;14429;48.346;16.338;2023-01-28T09:06:17;100361.97;;;8.95;52.14
26859;BME280;14429;48.346;16.338;2023-01-28T09:08:42;100364.44;;;9.15;54.36
26859;BME280;14429;48.346;16.338;2023-01-28T09:11:09;100365.84;;;9.22;53.91
26859;BME280;14429;48.346;16.338;2023-01-28T09:13:34;100371.00;;;9.25;53.48
26859;BME280;14429;48.346;16.338;2023-01-28T09:16:00;100368.78;;;9.33;53.10
26859;BME280;14429;48.346;16.338;2023-01-28T09:18:28;100364.06;;;9.06;51.36
26859;BME280;14429;48.346;16.338;2023-01-28T09:20:53;100378.84;;;8.78;53.28
26859;BME280;14429;48.346;16.338;2023-01-28T09:23:19;100377.91;;;8.79;55.31
26859;BME280;14429;48.346;16.338;2023-01-28T09:25:44;100383.59;;;9.05;55.57
26859;BME280;14429;48.346;16.338;2023-01-28T09:28:11;100376.44;;;9.07;55.57
26859;BME280;14429;48.346;16.338;2023-01-28T09:30:36;100383.56;;;9.06;54.92
26859;BME280;14429;48.346;16.338;2023-01-28T09:33:02;100376.66;;;9.02;54.66
26859;BME280;14429;48.346;16.338;2023-01-28T09:35:27;100377.88;;;9.12;54.28
26859;BME280;14429;48.346;16.338;2023-01-28T09:37:55;100380.34;;;9.16;53.93
26859;BME280;14429;48.346;16.338;2023-01-28T09:40:28;100382.06;;;9.17;53.67
26859;BME280;14429;48.346;16.338;2023-01-28T09:43:06;100382.91;;;9.18;53.51
26859;BME280;14429;48.346;16.338;2023-01-28T09:45:40;100386.06;;;9.09;54.12
26859;BME280;14429;48.346;16.338;2023-01-28T09:48:12;100389.34;;;8.81;54.60
26859;BME280;14429;48.346;16.338;2023-01-28T09:50:41;100389.25;;;8.99;55.69
26859;BME280;14429;48.346;16.338;2023-01-28T09:53:12;100385.88;;;9.12;55.61
26859;BME280;14429;48.346;16.338;2023-01-28T09:55:43;100385.56;;;9.18;54.89
26859;BME280;14429;48.346;16.338;2023-01-28T09:58:11;100385.06;;;9.27;54.38
26859;BME280;14429;48.346;16.338;2023-01-28T10:00:42;100386.56;;;9.32;53.87
26859;BME280;14429;48.346;16.338;2023-01-28T10:03:16;100386.16;;;9.40;53.67
26859;BME280;14429;48.346;16.338;2023-01-28T10:05:52;100382.00;;;9.34;53.46
26859;BME280;14429;48.346;16.338;2023-01-28T10:08:27;100379.88;;;9.09;53.07
26859;BME280;14429;48.346;16.338;2023-01-28T10:11:06;100377.69;;;9.16;52.97
26859;BME280;14429;48.346;16.338;2023-01-28T10:13:39;100380.69;;;9.26;53.84
26859;BME280;14429;48.346;16.338;2023-01-28T10:16:19;100377.50;;;9.19;54.71
26859;BME280;14429;48.346;16.338;2023-01-28T10:18:52;100376.31;;;9.25;55.18
26859;BME280;14429;48.346;16.338;2023-01-28T10:21:23;100374.22;;;9.14;54.99
26859;BME280;14429;48.346;16.338;2023-01-28T10:23:56;100371.72;;;9.28;54.79
26859;BME280;14429;48.346;16.338;2023-01-28T10:26:26;100378.69;;;9.14;53.33
26859;BME280;14429;48.346;16.338;2023-01-28T10:28:56;100378.38;;;9.20;54.21
26859;BME280;14429;48.346;16.338;2023-01-28T10:31:30;100381.00;;;9.37;53.67
26859;BME280;14429;48.346;16.338;2023-01-28T10:33:56;100382.53;;;8.92;53.38
26859;BME280;14429;48.346;16.338;2023-01-28T10:36:21;100387.50;;;8.13;52.35
26859;BME280;14429;48.346;16.338;2023-01-28T10:38:47;100381.81;;;8.55;55.29
26859;BME280;14429;48.346;16.338;2023-01-28T10:41:17;100393.63;;;8.50;56.02
26859;BME280;14429;48.346;16.338;2023-01-28T10:43:44;100386.03;;;8.92;55.90
26859;BME280;14429;48.346;16.338;2023-01-28T10:46:13;100391.94;;;8.12;53.60
26859;BME280;14429;48.346;16.338;2023-01-28T10:48:44;100393.84;;;8.45;55.89
26859;BME280;14429;48.346;16.338;2023-01-28T10:51:10;100392.75;;;8.49;55.94
26859;BME280;14429;48.346;16.338;2023-01-28T10:53:37;100391.72;;;8.17;54.37
26859;BME280;14429;48.346;16.338;2023-01-28T10:56:05;100393.16;;;8.24;55.05
26859;BME280;14429;48.346;16.338;2023-01-28T10:58:33;100389.97;;;8.69;55.01
26859;BME280;14429;48.346;16.338;2023-01-28T11:01:02;100378.19;;;8.39;53.72
26859;BME280;14429;48.346;16.338;2023-01-28T11:03:29;100386.34;;;9.03;54.36
26859;BME280;14429;48.346;16.338;2023-01-28T11:05:57;100390.34;;;7.72;56.25
26859;BME280;14429;48.346;16.338;2023-01-28T11:08:24;100386.03;;;7.88;57.12
26859;BME280;14429;48.346;16.338;2023-01-28T11:10:51;100385.25;;;8.57;56.94
26859;BME280;14429;48.346;16.338;2023-01-28T11:13:18;100384.47;;;8.88;56.55
26859;BME280;14429;48.346;16.338;2023-01-28T11:15:48;100385.69;;;8.48;56.31
26859;BME280;14429;48.346;16.338;2023-01-28T11:18:16;100376.28;;;8.76;55.93
26859;BME280;14429;48.346;16.338;2023-01-28T11:20:49;100379.31;;;8.69;55.71
26859;BME280;14429;48.346;16.338;2023-01-28T11:23:21;100377.97;;;9.11;54.62
26859;BME280;14429;48.346;16.338;2023-01-28T11:25:48;100368.97;;;9.30;53.60
26859;BME280;14429;48.346;16.338;2023-01-28T11:28:24;100367.44;;;9.41;53.31
26859;BME280;14429;48.346;16.338;2023-01-28T11:30:51;100366.13;;;9.33;53.25
26859;BME280;14429;48.346;16.338;2023-01-28T11:33:20;100377.69;;;9.16;53.85
26859;BME280;14429;48.346;16.338;2023-01-28T11:35:53;100374.63;;;9.07;54.89
26859;BME280;14429;48.346;16.338;2023-01-28T11:38:21;100372.06;;;9.06;55.39
26859;BME280;14429;48.346;16.338;2023-01-28T11:40:51;100369.59;;;9.18;55.28
26859;BME280;14429;48.346;16.338;2023-01-28T11:43:16;100374.16;;;9.16;54.73
26859;BME280;14429;48.346;16.338;2023-01-28T11:45:46;100377.88;;;9.29;54.48
26859;BME280;14429;48.346;16.338;2023-01-28T11:48:26;100367.00;;;9.33;53.79
26859;BME280;14429;48.346;16.338;2023-01-28T11:51:00;100363.06;;;9.40;53.27
26859;BME280;14429;48.346;16.338;2023-01-28T11:56:38;100367.81;;;9.50;52.72
26859;BME280;14429;48.346;16.338;2023-01-28T11:59:19;100360.28;;;9.26;53.61
26859;BME280;14429;48.346;16.338;2023-01-28T12:01:51;100369.50;;;9.19;54.35
26859;BME280;14429;48.346;16.338;2023-01-28T12:04:24;100368.53;;;8.88;55.06
26859;BME280;14429;48.346;16.338;2023-01-28T12:07:18;100367.44;;;8.92;54.93
26859;BME280;14429;48.346;16.338;2023-01-28T12:09:52;100371.66;;;9.13;54.87
26859;BME280;14429;48.346;16.338;2023-01-28T12:12:33;100373.16;;;9.02;54.66
26859;BME280;14429;48.346;16.338;2023-01-28T12:15:31;100371.66;;;9.13;54.29
26859;BME280;14429;48.346;16.338;2023-01-28T12:18:14;100367.41;;;9.26;53.53
26859;BME280;14429;48.346;16.338;2023-01-28T12:20:50;100378.59;;;9.32;53.16
26859;BME280;14429;48.346;16.338;2023-01-28T12:23:30;100378.06;;;8.92;52.11
26859;BME280;14429;48.346;16.338;2023-01-28T12:26:06;100372.44;;;8.98;54.21
26859;BME280;14429;48.346;16.338;2023-01-28T12:28:37;100373.44;;;8.96;55.32
26859;BME280;14429;48.346;16.338;2023-01-28T12:31:22;100383.03;;;8.32;52.64
26859;BME280;14429;48.346;16.338;2023-01-28T12:34:29;100383.16;;;8.29;55.87
26859;BME280;14429;48.346;16.338;2023-01-28T12:37:02;100389.34;;;8.11;55.87
26859;BME280;14429;48.346;16.338;2023-01-28T12:39:44;100380.16;;;8.53;55.76
26859;BME280;14429;48.346;16.338;2023-01-28T12:42:29;100383.53;;;8.89;55.08
26859;BME280;14429;48.346;16.338;2023-01-28T12:45:01;100387.53;;;8.98;54.57
26859;BME280;14429;48.346;16.338;2023-01-28T12:47:34;100390.34;;;9.12;53.86
26859;BME280;14429;48.346;16.338;2023-01-28T12:50:03;100385.81;;;8.80;52.49
26859;BME280;14429;48.346;16.338;2023-01-28T12:52:38;100392.00;;;9.14;54.41
26859;BME280;14429;48.346;16.338;2023-01-28T12:55:12;100386.91;;;9.10;54.77
26859;BME280;14429;48.346;16.338;2023-01-28T12:57:40;100393.53;;;9.18;54.90
26859;BME280;14429;48.346;16.338;2023-01-28T13:00:21;100398.25;;;9.13;54.41